עמוד ראשי
METAR-TAF:

METAR-TAF

שדות תעופה :

Bradshaw Army Air Field

Bradshaw, הוואי, ארצות הברית

קו רוחב: 19-47N, קו אורך: 155-33W, גובה: 1887מטר

תצפית מזג אוויר נוכחית

הדו"ח נערך לפני 1 שעות ו 11דקות, בשעה 10:55 UTC
רוח 3קשר מכיוון צפון/צפון-מערב
טמפרטורת 8 צלסיוס
לחות 71%
לחץ 1028 hPa
ראות: 16.1קילומטר
שמיים נקיים

METAR: PHSF 151055Z AUTO 34003KT 10SM CLR 08/03 A3035 RMK AO2 SLP165 T00820031 $

זמן: 02:06 (12:06 UTC)


TAF: חסר

תצפיות ותחזיות מזג אוויר לגבי יותר מ- 4,000 שדות תעופה ברחבי העולם. דוחות METAR ו- TAF.

התחנות הזמינות מסומנות בנקודות צהובות ואדומות על גבי המפה.

העבר את העכבר לנקודה הצבעונית על מנת לראות את שם התחנה.

לאחר מכן, לחץ כדי לראות את תוכן ואת תחזיות מזג האוויר.

כדי לשנות את המפה: לחץ על הכפתורים הירוקים עם הפלוס השחור כדי להתקרב; על הכפתור הירוק עם המקף כדי להתרחק; או בחיצים הירוקים למפות סמוכות.


METAR-TAF: